sensor_id;sensor_type;location;lat;lon;timestamp;P1;durP1;ratioP1;P2;durP2;ratioP2
55134;SDS011;41031;44.750;11.308;2023-03-14T00:01:17;16.27;;;12.80;;
55134;SDS011;41031;44.750;11.308;2023-03-14T00:03:48;19.13;;;12.53;;
55134;SDS011;41031;44.750;11.308;2023-03-14T00:06:16;16.77;;;12.87;;
55134;SDS011;41031;44.750;11.308;2023-03-14T00:08:45;21.00;;;12.43;;
55134;SDS011;41031;44.750;11.308;2023-03-14T00:11:16;19.70;;;13.07;;
55134;SDS011;41031;44.750;11.308;2023-03-14T00:13:48;17.50;;;12.63;;
55134;SDS011;41031;44.750;11.308;2023-03-14T00:16:16;21.60;;;13.57;;
55134;SDS011;41031;44.750;11.308;2023-03-14T00:18:44;17.93;;;13.60;;
55134;SDS011;41031;44.750;11.308;2023-03-14T00:21:11;18.53;;;12.87;;
55134;SDS011;41031;44.750;11.308;2023-03-14T00:23:39;19.63;;;14.87;;
55134;SDS011;41031;44.750;11.308;2023-03-14T00:26:08;20.90;;;14.03;;
55134;SDS011;41031;44.750;11.308;2023-03-14T00:28:40;19.20;;;15.17;;
55134;SDS011;41031;44.750;11.308;2023-03-14T00:31:09;20.07;;;14.03;;
55134;SDS011;41031;44.750;11.308;2023-03-14T00:33:40;20.80;;;14.80;;
55134;SDS011;41031;44.750;11.308;2023-03-14T00:36:09;22.53;;;14.03;;
55134;SDS011;41031;44.750;11.308;2023-03-14T00:38:39;20.73;;;14.63;;
55134;SDS011;41031;44.750;11.308;2023-03-14T00:41:08;19.43;;;13.33;;
55134;SDS011;41031;44.750;11.308;2023-03-14T00:43:37;19.63;;;13.87;;
55134;SDS011;41031;44.750;11.308;2023-03-14T00:46:05;18.23;;;14.93;;
55134;SDS011;41031;44.750;11.308;2023-03-14T00:48:32;18.93;;;13.47;;
55134;SDS011;41031;44.750;11.308;2023-03-14T00:51:01;18.50;;;13.13;;
55134;SDS011;41031;44.750;11.308;2023-03-14T00:53:30;18.83;;;12.63;;
55134;SDS011;41031;44.750;11.308;2023-03-14T00:56:01;17.43;;;12.47;;
55134;SDS011;41031;44.750;11.308;2023-03-14T00:58:30;19.33;;;12.90;;
55134;SDS011;41031;44.750;11.308;2023-03-14T01:00:57;21.37;;;13.37;;
55134;SDS011;41031;44.750;11.308;2023-03-14T01:03:24;22.30;;;13.47;;
55134;SDS011;41031;44.750;11.308;2023-03-14T01:05:51;15.67;;;12.00;;
55134;SDS011;41031;44.750;11.308;2023-03-14T01:08:18;16.80;;;12.00;;
55134;SDS011;41031;44.750;11.308;2023-03-14T01:10:45;19.97;;;13.13;;
55134;SDS011;41031;44.750;11.308;2023-03-14T01:13:12;22.90;;;13.83;;
55134;SDS011;41031;44.750;11.308;2023-03-14T01:15:39;18.63;;;13.17;;
55134;SDS011;41031;44.750;11.308;2023-03-14T01:18:10;19.77;;;12.90;;
55134;SDS011;41031;44.750;11.308;2023-03-14T01:20:37;22.87;;;12.63;;
55134;SDS011;41031;44.750;11.308;2023-03-14T01:23:04;16.87;;;13.70;;
55134;SDS011;41031;44.750;11.308;2023-03-14T01:25:30;17.33;;;13.53;;
55134;SDS011;41031;44.750;11.308;2023-03-14T01:27:58;22.63;;;13.80;;
55134;SDS011;41031;44.750;11.308;2023-03-14T01:30:27;19.50;;;14.00;;
55134;SDS011;41031;44.750;11.308;2023-03-14T01:32:54;17.60;;;13.40;;
55134;SDS011;41031;44.750;11.308;2023-03-14T01:35:21;17.10;;;12.90;;
55134;SDS011;41031;44.750;11.308;2023-03-14T01:37:48;19.13;;;14.40;;
55134;SDS011;41031;44.750;11.308;2023-03-14T01:40:20;23.63;;;13.53;;
55134;SDS011;41031;44.750;11.308;2023-03-14T01:42:55;19.03;;;13.27;;
55134;SDS011;41031;44.750;11.308;2023-03-14T01:48:28;14.97;;;12.30;;
55134;SDS011;41031;44.750;11.308;2023-03-14T01:51:01;14.30;;;11.20;;
55134;SDS011;41031;44.750;11.308;2023-03-14T01:53:29;19.63;;;12.57;;
55134;SDS011;41031;44.750;11.308;2023-03-14T01:55:56;18.80;;;12.67;;
55134;SDS011;41031;44.750;11.308;2023-03-14T01:58:24;17.90;;;12.60;;
55134;SDS011;41031;44.750;11.308;2023-03-14T02:00:54;17.13;;;13.10;;
55134;SDS011;41031;44.750;11.308;2023-03-14T02:03:24;17.23;;;12.13;;
55134;SDS011;41031;44.750;11.308;2023-03-14T02:05:52;16.97;;;13.93;;
55134;SDS011;41031;44.750;11.308;2023-03-14T02:08:24;18.70;;;13.07;;
55134;SDS011;41031;44.750;11.308;2023-03-14T02:10:58;19.53;;;12.63;;
55134;SDS011;41031;44.750;11.308;2023-03-14T02:13:45;15.27;;;11.90;;
55134;SDS011;41031;44.750;11.308;2023-03-14T02:16:35;17.37;;;12.30;;
55134;SDS011;41031;44.750;11.308;2023-03-14T02:19:25;14.40;;;11.50;;
55134;SDS011;41031;44.750;11.308;2023-03-14T02:22:21;14.43;;;10.43;;
55134;SDS011;41031;44.750;11.308;2023-03-14T02:27:33;16.80;;;9.73;;
55134;SDS011;41031;44.750;11.308;2023-03-14T02:30:02;15.70;;;9.00;;
55134;SDS011;41031;44.750;11.308;2023-03-14T02:32:33;10.90;;;8.40;;
55134;SDS011;41031;44.750;11.308;2023-03-14T02:35:04;11.80;;;7.87;;
55134;SDS011;41031;44.750;11.308;2023-03-14T02:37:37;9.53;;;7.60;;
55134;SDS011;41031;44.750;11.308;2023-03-14T02:40:09;11.00;;;6.93;;
55134;SDS011;41031;44.750;11.308;2023-03-14T02:42:38;11.00;;;6.60;;
55134;SDS011;41031;44.750;11.308;2023-03-14T02:47:42;8.13;;;5.73;;
55134;SDS011;41031;44.750;11.308;2023-03-14T02:50:15;7.10;;;5.23;;
55134;SDS011;41031;44.750;11.308;2023-03-14T02:52:50;14.00;;;8.73;;
55134;SDS011;41031;44.750;11.308;2023-03-14T02:55:21;13.43;;;9.27;;
55134;SDS011;41031;44.750;11.308;2023-03-14T02:57:52;14.77;;;9.37;;
55134;SDS011;41031;44.750;11.308;2023-03-14T03:00:19;15.10;;;9.70;;
55134;SDS011;41031;44.750;11.308;2023-03-14T03:02:47;16.07;;;10.37;;
55134;SDS011;41031;44.750;11.308;2023-03-14T03:05:14;14.93;;;9.40;;
55134;SDS011;41031;44.750;11.308;2023-03-14T03:07:41;13.00;;;8.77;;
55134;SDS011;41031;44.750;11.308;2023-03-14T03:10:09;12.60;;;7.43;;
55134;SDS011;41031;44.750;11.308;2023-03-14T03:12:36;15.33;;;7.30;;
55134;SDS011;41031;44.750;11.308;2023-03-14T03:15:04;11.30;;;6.10;;
55134;SDS011;41031;44.750;11.308;2023-03-14T03:17:34;11.20;;;4.93;;
55134;SDS011;41031;44.750;11.308;2023-03-14T03:20:01;7.30;;;3.37;;
55134;SDS011;41031;44.750;11.308;2023-03-14T03:22:31;7.47;;;3.77;;
55134;SDS011;41031;44.750;11.308;2023-03-14T03:25:01;7.60;;;2.73;;
55134;SDS011;41031;44.750;11.308;2023-03-14T03:27:33;6.53;;;3.03;;
55134;SDS011;41031;44.750;11.308;2023-03-14T03:30:03;9.23;;;3.23;;
55134;SDS011;41031;44.750;11.308;2023-03-14T03:32:33;6.53;;;3.23;;
55134;SDS011;41031;44.750;11.308;2023-03-14T03:35:01;8.93;;;2.50;;
55134;SDS011;41031;44.750;11.308;2023-03-14T03:37:32;7.33;;;2.10;;
55134;SDS011;41031;44.750;11.308;2023-03-14T03:39:59;6.67;;;1.90;;
55134;SDS011;41031;44.750;11.308;2023-03-14T03:42:27;11.90;;;2.07;;
55134;SDS011;41031;44.750;11.308;2023-03-14T03:44:54;9.13;;;2.90;;
55134;SDS011;41031;44.750;11.308;2023-03-14T03:47:22;8.93;;;2.27;;
55134;SDS011;41031;44.750;11.308;2023-03-14T03:49:50;9.10;;;1.83;;
55134;SDS011;41031;44.750;11.308;2023-03-14T03:52:17;5.47;;;1.50;;
55134;SDS011;41031;44.750;11.308;2023-03-14T03:54:44;6.80;;;1.90;;
55134;SDS011;41031;44.750;11.308;2023-03-14T03:57:12;7.40;;;2.13;;
55134;SDS011;41031;44.750;11.308;2023-03-14T03:59:39;7.33;;;1.37;;
55134;SDS011;41031;44.750;11.308;2023-03-14T04:02:07;5.07;;;1.13;;
55134;SDS011;41031;44.750;11.308;2023-03-14T04:04:34;5.00;;;1.63;;
55134;SDS011;41031;44.750;11.308;2023-03-14T04:07:02;7.40;;;1.40;;
55134;SDS011;41031;44.750;11.308;2023-03-14T04:09:30;6.30;;;1.13;;
55134;SDS011;41031;44.750;11.308;2023-03-14T04:12:26;6.63;;;1.00;;
55134;SDS011;41031;44.750;11.308;2023-03-14T04:15:02;4.77;;;2.30;;
55134;SDS011;41031;44.750;11.308;2023-03-14T04:17:30;5.53;;;1.40;;
55134;SDS011;41031;44.750;11.308;2023-03-14T04:19:57;6.30;;;1.30;;
55134;SDS011;41031;44.750;11.308;2023-03-14T04:22:32;6.37;;;1.47;;
55134;SDS011;41031;44.750;11.308;2023-03-14T04:24:59;5.97;;;1.17;;
55134;SDS011;41031;44.750;11.308;2023-03-14T04:27:31;6.40;;;1.63;;
55134;SDS011;41031;44.750;11.308;2023-03-14T04:30:00;5.70;;;1.10;;
55134;SDS011;41031;44.750;11.308;2023-03-14T04:32:48;5.27;;;1.43;;
55134;SDS011;41031;44.750;11.308;2023-03-14T04:35:17;6.47;;;1.20;;
55134;SDS011;41031;44.750;11.308;2023-03-14T04:37:43;4.73;;;1.27;;
55134;SDS011;41031;44.750;11.308;2023-03-14T04:40:13;10.93;;;1.60;;
55134;SDS011;41031;44.750;11.308;2023-03-14T04:42:44;2.53;;;0.90;;
55134;SDS011;41031;44.750;11.308;2023-03-14T04:45:12;9.13;;;1.77;;
55134;SDS011;41031;44.750;11.308;2023-03-14T04:47:40;5.23;;;1.53;;
55134;SDS011;41031;44.750;11.308;2023-03-14T04:50:12;6.33;;;1.47;;
55134;SDS011;41031;44.750;11.308;2023-03-14T04:52:39;8.77;;;1.03;;
55134;SDS011;41031;44.750;11.308;2023-03-14T04:55:07;9.83;;;1.37;;
55134;SDS011;41031;44.750;11.308;2023-03-14T04:57:35;6.90;;;2.03;;
55134;SDS011;41031;44.750;11.308;2023-03-14T05:00:02;4.33;;;1.83;;
55134;SDS011;41031;44.750;11.308;2023-03-14T05:02:51;4.63;;;1.30;;
55134;SDS011;41031;44.750;11.308;2023-03-14T05:05:37;3.83;;;1.03;;
55134;SDS011;41031;44.750;11.308;2023-03-14T05:08:14;5.80;;;1.10;;
55134;SDS011;41031;44.750;11.308;2023-03-14T05:11:05;5.77;;;1.20;;
55134;SDS011;41031;44.750;11.308;2023-03-14T05:13:41;5.30;;;1.37;;
55134;SDS011;41031;44.750;11.308;2023-03-14T05:16:17;7.33;;;1.57;;
55134;SDS011;41031;44.750;11.308;2023-03-14T05:19:04;7.00;;;1.60;;
55134;SDS011;41031;44.750;11.308;2023-03-14T05:21:50;7.03;;;1.73;;
55134;SDS011;41031;44.750;11.308;2023-03-14T05:24:37;3.97;;;1.20;;
55134;SDS011;41031;44.750;11.308;2023-03-14T05:27:24;6.37;;;1.47;;
55134;SDS011;41031;44.750;11.308;2023-03-14T05:30:11;6.47;;;1.20;;
55134;SDS011;41031;44.750;11.308;2023-03-14T05:32:56;2.03;;;0.90;;
55134;SDS011;41031;44.750;11.308;2023-03-14T05:35:42;5.60;;;1.60;;
55134;SDS011;41031;44.750;11.308;2023-03-14T05:38:29;5.63;;;1.40;;
55134;SDS011;41031;44.750;11.308;2023-03-14T05:41:09;4.73;;;1.50;;
55134;SDS011;41031;44.750;11.308;2023-03-14T05:44:02;3.63;;;1.10;;
55134;SDS011;41031;44.750;11.308;2023-03-14T05:47:02;3.67;;;1.03;;
55134;SDS011;41031;44.750;11.308;2023-03-14T05:49:49;7.70;;;1.97;;
55134;SDS011;41031;44.750;11.308;2023-03-14T05:52:29;7.57;;;1.73;;
55134;SDS011;41031;44.750;11.308;2023-03-14T05:55:07;5.13;;;1.27;;
55134;SDS011;41031;44.750;11.308;2023-03-14T05:57:53;6.63;;;1.57;;
55134;SDS011;41031;44.750;11.308;2023-03-14T06:00:36;6.50;;;1.30;;
55134;SDS011;41031;44.750;11.308;2023-03-14T06:03:16;5.43;;;1.73;;
55134;SDS011;41031;44.750;11.308;2023-03-14T06:05:46;5.57;;;1.50;;
55134;SDS011;41031;44.750;11.308;2023-03-14T06:08:19;4.20;;;1.33;;
55134;SDS011;41031;44.750;11.308;2023-03-14T06:10:46;6.03;;;1.53;;
55134;SDS011;41031;44.750;11.308;2023-03-14T06:13:13;6.67;;;1.90;;
55134;SDS011;41031;44.750;11.308;2023-03-14T06:15:42;4.90;;;1.10;;
55134;SDS011;41031;44.750;11.308;2023-03-14T06:18:10;4.03;;;1.20;;
55134;SDS011;41031;44.750;11.308;2023-03-14T06:20:39;4.60;;;1.63;;
55134;SDS011;41031;44.750;11.308;2023-03-14T06:23:09;4.07;;;1.50;;
55134;SDS011;41031;44.750;11.308;2023-03-14T06:25:36;2.83;;;1.30;;
55134;SDS011;41031;44.750;11.308;2023-03-14T06:28:04;5.10;;;1.43;;
55134;SDS011;41031;44.750;11.308;2023-03-14T06:30:31;5.83;;;1.53;;
55134;SDS011;41031;44.750;11.308;2023-03-14T06:32:58;5.70;;;1.90;;
55134;SDS011;41031;44.750;11.308;2023-03-14T06:35:26;3.17;;;1.20;;
55134;SDS011;41031;44.750;11.308;2023-03-14T06:37:53;6.20;;;1.43;;
55134;SDS011;41031;44.750;11.308;2023-03-14T06:40:21;5.00;;;1.53;;
55134;SDS011;41031;44.750;11.308;2023-03-14T06:43:17;5.83;;;1.40;;
55134;SDS011;41031;44.750;11.308;2023-03-14T06:45:45;3.47;;;1.33;;
55134;SDS011;41031;44.750;11.308;2023-03-14T06:48:12;7.43;;;1.70;;
55134;SDS011;41031;44.750;11.308;2023-03-14T06:50:47;5.47;;;1.40;;
55134;SDS011;41031;44.750;11.308;2023-03-14T06:53:15;8.20;;;1.80;;
55134;SDS011;41031;44.750;11.308;2023-03-14T06:55:43;7.13;;;1.90;;
55134;SDS011;41031;44.750;11.308;2023-03-14T06:58:10;4.73;;;1.30;;
55134;SDS011;41031;44.750;11.308;2023-03-14T07:00:41;6.57;;;1.23;;
55134;SDS011;41031;44.750;11.308;2023-03-14T07:03:12;7.77;;;1.30;;
55134;SDS011;41031;44.750;11.308;2023-03-14T07:05:44;6.53;;;1.63;;
55134;SDS011;41031;44.750;11.308;2023-03-14T07:08:11;5.17;;;1.80;;
55134;SDS011;41031;44.750;11.308;2023-03-14T07:10:37;4.10;;;1.33;;
55134;SDS011;41031;44.750;11.308;2023-03-14T07:13:06;4.27;;;1.40;;
55134;SDS011;41031;44.750;11.308;2023-03-14T07:15:41;7.50;;;1.70;;
55134;SDS011;41031;44.750;11.308;2023-03-14T07:18:09;7.07;;;1.10;;
55134;SDS011;41031;44.750;11.308;2023-03-14T07:20:37;5.87;;;1.50;;
55134;SDS011;41031;44.750;11.308;2023-03-14T07:23:05;8.33;;;1.70;;
55134;SDS011;41031;44.750;11.308;2023-03-14T07:25:37;7.83;;;1.63;;
55134;SDS011;41031;44.750;11.308;2023-03-14T07:28:05;3.77;;;1.70;;
55134;SDS011;41031;44.750;11.308;2023-03-14T07:30:32;8.37;;;1.93;;
55134;SDS011;41031;44.750;11.308;2023-03-14T07:33:02;6.07;;;1.90;;
55134;SDS011;41031;44.750;11.308;2023-03-14T07:35:29;3.83;;;1.30;;
55134;SDS011;41031;44.750;11.308;2023-03-14T07:37:56;5.70;;;1.37;;
55134;SDS011;41031;44.750;11.308;2023-03-14T07:40:30;8.20;;;1.60;;
55134;SDS011;41031;44.750;11.308;2023-03-14T07:42:58;6.13;;;2.00;;
55134;SDS011;41031;44.750;11.308;2023-03-14T07:45:30;4.53;;;1.63;;
55134;SDS011;41031;44.750;11.308;2023-03-14T07:47:57;6.83;;;1.60;;
55134;SDS011;41031;44.750;11.308;2023-03-14T07:50:24;7.03;;;2.03;;
55134;SDS011;41031;44.750;11.308;2023-03-14T07:52:53;7.33;;;2.40;;
55134;SDS011;41031;44.750;11.308;2023-03-14T07:55:21;5.73;;;1.97;;
55134;SDS011;41031;44.750;11.308;2023-03-14T07:57:48;8.40;;;3.10;;
55134;SDS011;41031;44.750;11.308;2023-03-14T08:00:15;10.87;;;3.90;;
55134;SDS011;41031;44.750;11.308;2023-03-14T08:02:44;11.53;;;4.50;;
55134;SDS011;41031;44.750;11.308;2023-03-14T08:05:11;8.50;;;4.73;;
55134;SDS011;41031;44.750;11.308;2023-03-14T08:07:38;7.40;;;4.93;;
55134;SDS011;41031;44.750;11.308;2023-03-14T08:10:05;14.00;;;4.70;;
55134;SDS011;41031;44.750;11.308;2023-03-14T08:12:32;8.77;;;4.23;;
55134;SDS011;41031;44.750;11.308;2023-03-14T08:15:00;6.20;;;4.47;;
55134;SDS011;41031;44.750;11.308;2023-03-14T08:17:27;10.67;;;4.77;;
55134;SDS011;41031;44.750;11.308;2023-03-14T08:19:54;10.03;;;4.90;;
55134;SDS011;41031;44.750;11.308;2023-03-14T08:22:21;10.80;;;4.60;;
55134;SDS011;41031;44.750;11.308;2023-03-14T08:24:48;12.70;;;5.30;;
55134;SDS011;41031;44.750;11.308;2023-03-14T08:27:15;10.07;;;5.10;;
55134;SDS011;41031;44.750;11.308;2023-03-14T08:29:42;8.03;;;4.10;;
55134;SDS011;41031;44.750;11.308;2023-03-14T08:32:10;12.63;;;4.90;;
55134;SDS011;41031;44.750;11.308;2023-03-14T08:34:37;7.63;;;4.50;;
55134;SDS011;41031;44.750;11.308;2023-03-14T08:37:05;9.50;;;5.30;;
55134;SDS011;41031;44.750;11.308;2023-03-14T08:39:49;11.27;;;5.27;;
55134;SDS011;41031;44.750;11.308;2023-03-14T08:42:16;8.33;;;5.83;;
55134;SDS011;41031;44.750;11.308;2023-03-14T08:44:43;14.30;;;6.10;;
55134;SDS011;41031;44.750;11.308;2023-03-14T08:47:11;10.20;;;5.97;;
55134;SDS011;41031;44.750;11.308;2023-03-14T08:49:38;10.50;;;6.23;;
55134;SDS011;41031;44.750;11.308;2023-03-14T08:52:05;11.20;;;6.10;;
55134;SDS011;41031;44.750;11.308;2023-03-14T08:54:33;12.97;;;5.93;;
55134;SDS011;41031;44.750;11.308;2023-03-14T08:57:00;11.37;;;5.93;;
55134;SDS011;41031;44.750;11.308;2023-03-14T08:59:27;11.37;;;6.10;;
55134;SDS011;41031;44.750;11.308;2023-03-14T09:01:53;10.23;;;6.20;;
55134;SDS011;41031;44.750;11.308;2023-03-14T09:04:21;9.33;;;6.00;;
55134;SDS011;41031;44.750;11.308;2023-03-14T09:06:48;12.47;;;6.37;;
55134;SDS011;41031;44.750;11.308;2023-03-14T09:09:15;8.67;;;5.53;;
55134;SDS011;41031;44.750;11.308;2023-03-14T09:11:43;11.70;;;6.10;;
55134;SDS011;41031;44.750;11.308;2023-03-14T09:14:10;9.47;;;5.77;;
55134;SDS011;41031;44.750;11.308;2023-03-14T09:16:37;7.90;;;5.70;;
55134;SDS011;41031;44.750;11.308;2023-03-14T09:19:04;11.23;;;6.10;;
55134;SDS011;41031;44.750;11.308;2023-03-14T09:21:31;9.67;;;5.80;;
55134;SDS011;41031;44.750;11.308;2023-03-14T09:23:58;9.53;;;5.60;;
55134;SDS011;41031;44.750;11.308;2023-03-14T09:26:26;7.87;;;5.10;;
55134;SDS011;41031;44.750;11.308;2023-03-14T09:28:53;9.70;;;5.67;;
55134;SDS011;41031;44.750;11.308;2023-03-14T09:31:22;16.83;;;6.23;;
55134;SDS011;41031;44.750;11.308;2023-03-14T09:33:49;10.10;;;5.90;;
55134;SDS011;41031;44.750;11.308;2023-03-14T09:36:16;9.33;;;5.70;;
55134;SDS011;41031;44.750;11.308;2023-03-14T09:38:43;12.53;;;5.50;;
55134;SDS011;41031;44.750;11.308;2023-03-14T09:41:12;13.40;;;5.13;;
55134;SDS011;41031;44.750;11.308;2023-03-14T09:43:44;14.77;;;5.20;;
55134;SDS011;41031;44.750;11.308;2023-03-14T09:46:12;7.80;;;3.97;;
55134;SDS011;41031;44.750;11.308;2023-03-14T09:48:40;8.10;;;3.80;;
55134;SDS011;41031;44.750;11.308;2023-03-14T09:51:12;8.40;;;4.30;;
55134;SDS011;41031;44.750;11.308;2023-03-14T09:53:43;4.77;;;3.07;;
55134;SDS011;41031;44.750;11.308;2023-03-14T09:56:33;7.60;;;3.03;;
55134;SDS011;41031;44.750;11.308;2023-03-14T09:59:00;5.80;;;3.60;;
55134;SDS011;41031;44.750;11.308;2023-03-14T10:01:32;5.70;;;2.90;;
55134;SDS011;41031;44.750;11.308;2023-03-14T10:04:00;7.07;;;3.07;;
55134;SDS011;41031;44.750;11.308;2023-03-14T10:06:33;5.93;;;2.73;;
55134;SDS011;41031;44.750;11.308;2023-03-14T10:09:02;8.83;;;2.00;;
55134;SDS011;41031;44.750;11.308;2023-03-14T10:11:31;6.43;;;1.70;;
55134;SDS011;41031;44.750;11.308;2023-03-14T10:16:37;5.50;;;1.50;;
55134;SDS011;41031;44.750;11.308;2023-03-14T10:19:12;6.07;;;1.83;;
55134;SDS011;41031;44.750;11.308;2023-03-14T10:21:42;5.00;;;2.00;;
55134;SDS011;41031;44.750;11.308;2023-03-14T10:24:18;9.07;;;1.83;;
55134;SDS011;41031;44.750;11.308;2023-03-14T10:26:49;3.73;;;1.60;;
55134;SDS011;41031;44.750;11.308;2023-03-14T10:29:19;4.60;;;1.57;;
55134;SDS011;41031;44.750;11.308;2023-03-14T10:31:58;5.80;;;1.57;;
55134;SDS011;41031;44.750;11.308;2023-03-14T10:34:35;5.83;;;1.40;;
55134;SDS011;41031;44.750;11.308;2023-03-14T10:37:12;3.47;;;1.43;;
55134;SDS011;41031;44.750;11.308;2023-03-14T10:39:47;3.07;;;1.30;;
55134;SDS011;41031;44.750;11.308;2023-03-14T10:45:02;3.73;;;1.00;;
55134;SDS011;41031;44.750;11.308;2023-03-14T10:47:32;4.00;;;1.10;;
55134;SDS011;41031;44.750;11.308;2023-03-14T10:52:49;2.40;;;1.03;;
55134;SDS011;41031;44.750;11.308;2023-03-14T10:55:43;5.07;;;1.20;;
55134;SDS011;41031;44.750;11.308;2023-03-14T10:58:25;3.03;;;1.30;;
55134;SDS011;41031;44.750;11.308;2023-03-14T11:03:40;4.17;;;1.00;;
55134;SDS011;41031;44.750;11.308;2023-03-14T11:06:18;1.90;;;0.80;;
55134;SDS011;41031;44.750;11.308;2023-03-14T11:09:18;3.37;;;1.30;;
55134;SDS011;41031;44.750;11.308;2023-03-14T11:12:03;2.20;;;0.93;;
55134;SDS011;41031;44.750;11.308;2023-03-14T11:14:46;6.37;;;1.40;;
55134;SDS011;41031;44.750;11.308;2023-03-14T11:17:24;4.13;;;2.00;;
55134;SDS011;41031;44.750;11.308;2023-03-14T11:20:07;7.27;;;2.50;;
55134;SDS011;41031;44.750;11.308;2023-03-14T11:28:40;12.17;;;9.63;;
55134;SDS011;41031;44.750;11.308;2023-03-14T11:33:47;17.77;;;10.73;;
55134;SDS011;41031;44.750;11.308;2023-03-14T11:36:39;14.10;;;9.27;;
55134;SDS011;41031;44.750;11.308;2023-03-14T11:39:20;14.30;;;9.93;;
55134;SDS011;41031;44.750;11.308;2023-03-14T11:41:57;13.27;;;9.90;;
55134;SDS011;41031;44.750;11.308;2023-03-14T11:47:10;14.87;;;10.20;;
55134;SDS011;41031;44.750;11.308;2023-03-14T11:52:58;18.13;;;11.20;;
55134;SDS011;41031;44.750;11.308;2023-03-14T11:55:36;14.63;;;11.57;;
55134;SDS011;41031;44.750;11.308;2023-03-14T11:58:13;16.27;;;11.07;;
55134;SDS011;41031;44.750;11.308;2023-03-14T12:00:52;15.03;;;9.93;;
55134;SDS011;41031;44.750;11.308;2023-03-14T12:06:28;11.93;;;10.40;;
55134;SDS011;41031;44.750;11.308;2023-03-14T12:09:05;13.90;;;10.90;;
55134;SDS011;41031;44.750;11.308;2023-03-14T12:11:48;13.03;;;10.20;;
55134;SDS011;41031;44.750;11.308;2023-03-14T12:14:32;18.47;;;10.50;;
55134;SDS011;41031;44.750;11.308;2023-03-14T12:19:48;14.20;;;9.40;;
55134;SDS011;41031;44.750;11.308;2023-03-14T12:22:42;14.17;;;8.63;;
55134;SDS011;41031;44.750;11.308;2023-03-14T12:35:43;12.13;;;9.10;;
55134;SDS011;41031;44.750;11.308;2023-03-14T12:38:22;15.13;;;9.07;;
55134;SDS011;41031;44.750;11.308;2023-03-14T12:41:01;15.13;;;10.13;;
55134;SDS011;41031;44.750;11.308;2023-03-14T12:43:33;14.83;;;10.27;;
55134;SDS011;41031;44.750;11.308;2023-03-14T12:46:20;12.60;;;8.87;;
55134;SDS011;41031;44.750;11.308;2023-03-14T13:04:37;14.53;;;8.40;;
55134;SDS011;41031;44.750;11.308;2023-03-14T13:07:13;13.40;;;8.63;;
55134;SDS011;41031;44.750;11.308;2023-03-14T13:10:00;15.83;;;9.30;;
55134;SDS011;41031;44.750;11.308;2023-03-14T13:12:39;14.03;;;9.20;;
55134;SDS011;41031;44.750;11.308;2023-03-14T13:15:32;12.80;;;8.67;;
55134;SDS011;41031;44.750;11.308;2023-03-14T13:18:12;12.87;;;9.13;;
55134;SDS011;41031;44.750;11.308;2023-03-14T13:20:54;10.80;;;8.57;;
55134;SDS011;41031;44.750;11.308;2023-03-14T13:23:29;12.43;;;9.47;;
55134;SDS011;41031;44.750;11.308;2023-03-14T13:26:00;15.53;;;9.03;;
55134;SDS011;41031;44.750;11.308;2023-03-14T13:28:29;11.00;;;7.73;;
55134;SDS011;41031;44.750;11.308;2023-03-14T13:30:58;14.77;;;8.70;;
55134;SDS011;41031;44.750;11.308;2023-03-14T13:33:27;12.03;;;8.60;;
55134;SDS011;41031;44.750;11.308;2023-03-14T13:35:58;12.73;;;8.10;;
55134;SDS011;41031;44.750;11.308;2023-03-14T13:38:29;12.33;;;8.57;;
55134;SDS011;41031;44.750;11.308;2023-03-14T13:40:59;10.13;;;7.53;;
55134;SDS011;41031;44.750;11.308;2023-03-14T13:43:31;11.37;;;6.80;;
55134;SDS011;41031;44.750;11.308;2023-03-14T13:48:31;12.30;;;8.43;;
55134;SDS011;41031;44.750;11.308;2023-03-14T13:51:03;9.40;;;6.80;;
55134;SDS011;41031;44.750;11.308;2023-03-14T13:53:33;11.30;;;6.97;;
55134;SDS011;41031;44.750;11.308;2023-03-14T13:56:19;9.67;;;6.77;;
55134;SDS011;41031;44.750;11.308;2023-03-14T13:58:48;8.60;;;5.70;;
55134;SDS011;41031;44.750;11.308;2023-03-14T14:01:28;10.00;;;6.63;;
55134;SDS011;41031;44.750;11.308;2023-03-14T14:04:14;10.47;;;6.30;;
55134;SDS011;41031;44.750;11.308;2023-03-14T14:06:46;8.17;;;6.23;;
55134;SDS011;41031;44.750;11.308;2023-03-14T14:09:19;10.07;;;6.63;;
55134;SDS011;41031;44.750;11.308;2023-03-14T14:11:59;13.47;;;7.13;;
55134;SDS011;41031;44.750;11.308;2023-03-14T14:14:43;13.33;;;6.77;;
55134;SDS011;41031;44.750;11.308;2023-03-14T14:17:26;9.87;;;6.13;;
55134;SDS011;41031;44.750;11.308;2023-03-14T14:19:58;12.20;;;6.33;;
55134;SDS011;41031;44.750;11.308;2023-03-14T14:22:27;10.27;;;6.07;;
55134;SDS011;41031;44.750;11.308;2023-03-14T14:24:54;10.77;;;6.03;;
55134;SDS011;41031;44.750;11.308;2023-03-14T14:27:37;10.37;;;5.40;;
55134;SDS011;41031;44.750;11.308;2023-03-14T14:32:51;9.17;;;6.00;;
55134;SDS011;41031;44.750;11.308;2023-03-14T14:35:22;9.37;;;5.57;;
55134;SDS011;41031;44.750;11.308;2023-03-14T14:37:58;10.63;;;5.57;;
55134;SDS011;41031;44.750;11.308;2023-03-14T14:40:26;11.13;;;6.20;;
55134;SDS011;41031;44.750;11.308;2023-03-14T14:42:55;13.43;;;6.37;;
55134;SDS011;41031;44.750;11.308;2023-03-14T14:45:30;11.37;;;5.80;;
55134;SDS011;41031;44.750;11.308;2023-03-14T14:48:06;8.80;;;5.67;;
55134;SDS011;41031;44.750;11.308;2023-03-14T14:50:38;9.53;;;5.80;;
55134;SDS011;41031;44.750;11.308;2023-03-14T14:55:51;11.73;;;6.00;;
55134;SDS011;41031;44.750;11.308;2023-03-14T14:58:27;8.87;;;5.57;;
55134;SDS011;41031;44.750;11.308;2023-03-14T15:01:30;9.33;;;5.10;;
55134;SDS011;41031;44.750;11.308;2023-03-14T15:03:51;7.83;;;4.83;;
55134;SDS011;41031;44.750;11.308;2023-03-14T15:06:20;8.90;;;5.30;;
55134;SDS011;41031;44.750;11.308;2023-03-14T15:08:47;6.00;;;4.30;;
55134;SDS011;41031;44.750;11.308;2023-03-14T15:11:19;10.37;;;4.97;;
55134;SDS011;41031;44.750;11.308;2023-03-14T15:13:51;5.47;;;4.07;;
55134;SDS011;41031;44.750;11.308;2023-03-14T15:16:19;6.93;;;4.07;;
55134;SDS011;41031;44.750;11.308;2023-03-14T15:18:50;6.23;;;4.60;;
55134;SDS011;41031;44.750;11.308;2023-03-14T15:21:22;7.37;;;3.93;;
55134;SDS011;41031;44.750;11.308;2023-03-14T15:23:50;10.03;;;5.47;;
55134;SDS011;41031;44.750;11.308;2023-03-14T15:26:18;6.53;;;5.63;;
55134;SDS011;41031;44.750;11.308;2023-03-14T15:28:47;9.40;;;5.13;;
55134;SDS011;41031;44.750;11.308;2023-03-14T15:31:16;9.40;;;5.27;;
55134;SDS011;41031;44.750;11.308;2023-03-14T15:33:44;8.53;;;4.10;;
55134;SDS011;41031;44.750;11.308;2023-03-14T15:36:22;7.77;;;4.50;;
55134;SDS011;41031;44.750;11.308;2023-03-14T15:38:52;7.83;;;4.80;;
55134;SDS011;41031;44.750;11.308;2023-03-14T15:41:20;8.57;;;4.43;;
55134;SDS011;41031;44.750;11.308;2023-03-14T15:43:48;4.90;;;3.50;;
55134;SDS011;41031;44.750;11.308;2023-03-14T15:46:15;8.43;;;4.10;;
55134;SDS011;41031;44.750;11.308;2023-03-14T15:48:44;7.57;;;3.37;;
55134;SDS011;41031;44.750;11.308;2023-03-14T15:51:11;5.83;;;3.90;;
55134;SDS011;41031;44.750;11.308;2023-03-14T15:53:39;7.13;;;3.93;;
55134;SDS011;41031;44.750;11.308;2023-03-14T15:56:07;5.13;;;3.27;;
55134;SDS011;41031;44.750;11.308;2023-03-14T15:58:39;6.20;;;3.47;;
55134;SDS011;41031;44.750;11.308;2023-03-14T16:01:07;6.47;;;3.40;;
55134;SDS011;41031;44.750;11.308;2023-03-14T16:03:37;5.23;;;3.20;;
55134;SDS011;41031;44.750;11.308;2023-03-14T16:06:05;9.63;;;3.57;;
55134;SDS011;41031;44.750;11.308;2023-03-14T16:08:32;6.40;;;3.70;;